Search for airport 
image banner adimage banner adimage banner ad
image banner ad

C80 - New Coalinga Muni

Located in Coalinga, United States

ICAO - C80, IATA -

Data provided by Airmate  

General information

Coordinates: N36°9'44" W120°17'41"
Elevation is 625 feet MSL.
Magnetic variation is 15° East
View others Airports in California

Operational data

Special qualification required
Current time UTC:
Current local time:
Weather at : KNLC - Lemoore Nas (Reeves Fld) ( 36 km )
METAR: KNLC 270356Z 18005KT 10SM SCT150 OVC200 30/12 A2987 RMK AO2 SLP112 RH/32 T03000122
TAF: TAF AMD KNLC 2700/2723 16018G25KT 9999 FEW010 SCT100 BKN200 641609 652404 530009 530903 551809 532703 QNH2977INS TEMPO 2700/2706 24009KT FEW010 SCT100 BKN200 FM270600 VRB06KT 9999 SCT100 BKN200 641609 652404 551809 532703 QNH2975INS T19/2714Z T39/2723Z AMD 0030 FS30012
View NOTAMs / SUP AIP / TFR affecting this airport [VIEW]
Communications frequencies: [VIEW]

Runways:

RWY identifierQFULength (ft)Width (ft)SurfaceLDA (ft)
0112°247160OTHER
19191°247160OTHER
12130°5000100ASPH
30310°5000100ASPH

Airport contact information

Address: Coalinga United States

Satellite view of C80